< < Back
Terminal Aerodrome Forecast


Current Version              Previous Versions:   1  2  3  4  5  6  7  8  9  

Terminal Aerodrome Forecast

304
FTUS42 KGSP 221700
TAFGSP
TAF
KGSP 221731Z 2218/2318 36010G17KT P6SM SKC
     FM230300 36005KT P6SM SKC=



Latest METAR

044
SAUS70 KWBC 231400 RRB
MTRGSP
METAR KGSP 231353Z 33004KT 10SM CLR 12/06 A3010 RMK AO2 SLP189
T01220061


USA.gov is the U.S. government's official web portal to all federal, state and local government web resources and services.